首页
METAR-TAF:

METAR-TAF

机场 :

雅典, 喬治亞, 美国

纬度: 33-57-03N, 经度: 083-19-41W, 海拔: 246米

当前天气观测

该预报发布于27分钟前的16:51 UTC
温度 26°C
湿度 48%
气压 1025 hPa
能見度: 16.1公里
少量云层高于3800英尺

METAR: KAHN 011651Z 10SM FEW038 26/14 A3027 RMK AO2 SLP244 T02610144

时间: 13:18 (17:18 UTC)

预报

该预报发布于5小时和56分钟前的11:22 UTC
预报有效从01日的 12点(UTC)到 02日的 12点(UTC)
风速5节,风向
能見度: 10公里
多云层高于6000英尺
从 01日的 1500点(UTC)
风速10节,风向,有时为16节阵风
能見度: 10公里
散云层高于5000英尺
从 02日的 0000点(UTC)
风速5节,风向
能見度: 10公里
散云层高于10000英尺
散云层高于25000英尺
从 02日的 1100点(UTC)
风速4节,风向
能見度: 10公里
散云层高于25000英尺

TAF: KAHN 011122Z 0112/0212 08005KT P6SM BKN060 FM011500 09010G16KT P6SM SCT050 FM020000 10005KT P6SM SCT100 SCT250 FM021100 18004KT P6SM SCT250

超过4000个机场的气象观测和天气预报(METAR&TAF报告)。

可查询的气象台以黄色和红色小点在地图上表示。

将鼠标移到小点上方,可查看气象台名称。

然后点击查看天气观测和预报。

如需切换地图:点击带黑十字的绿色按钮放大地图;点击带横线的绿色按钮缩小地图;或者点击绿色箭头查看邻近地区的地图。


METAR-TAF: